sensor_id;sensor_type;location;lat;lon;timestamp;temperature;humidity
19348;DHT22;9810;52.480;9.806;2022-10-19T00:01:03;10.40;99.90
19348;DHT22;9810;52.480;9.806;2022-10-19T00:03:30;10.70;99.90
19348;DHT22;9810;52.480;9.806;2022-10-19T00:05:57;10.80;99.90
19348;DHT22;9810;52.480;9.806;2022-10-19T00:08:24;10.80;99.90
19348;DHT22;9810;52.480;9.806;2022-10-19T00:10:51;10.80;99.90
19348;DHT22;9810;52.480;9.806;2022-10-19T00:13:20;10.80;99.90
19348;DHT22;9810;52.480;9.806;2022-10-19T00:15:47;10.60;99.90
19348;DHT22;9810;52.480;9.806;2022-10-19T00:18:14;10.60;99.90
19348;DHT22;9810;52.480;9.806;2022-10-19T00:20:41;10.70;99.90
19348;DHT22;9810;52.480;9.806;2022-10-19T00:23:08;10.70;99.90
19348;DHT22;9810;52.480;9.806;2022-10-19T00:25:35;10.70;99.90
19348;DHT22;9810;52.480;9.806;2022-10-19T00:28:03;10.60;99.90
19348;DHT22;9810;52.480;9.806;2022-10-19T00:30:36;10.70;99.90
19348;DHT22;9810;52.480;9.806;2022-10-19T00:33:03;10.70;99.90
19348;DHT22;9810;52.480;9.806;2022-10-19T00:35:30;10.80;99.90
19348;DHT22;9810;52.480;9.806;2022-10-19T00:37:57;10.70;99.90
19348;DHT22;9810;52.480;9.806;2022-10-19T00:40:24;10.60;99.90
19348;DHT22;9810;52.480;9.806;2022-10-19T00:42:53;10.50;99.90
19348;DHT22;9810;52.480;9.806;2022-10-19T00:45:20;10.30;99.90
19348;DHT22;9810;52.480;9.806;2022-10-19T00:47:49;10.10;99.90
19348;DHT22;9810;52.480;9.806;2022-10-19T00:50:17;10.00;99.90
19348;DHT22;9810;52.480;9.806;2022-10-19T00:52:44;9.90;99.90
19348;DHT22;9810;52.480;9.806;2022-10-19T00:55:12;9.70;99.90
19348;DHT22;9810;52.480;9.806;2022-10-19T00:57:39;9.70;99.90
19348;DHT22;9810;52.480;9.806;2022-10-19T01:00:07;9.60;99.90
19348;DHT22;9810;52.480;9.806;2022-10-19T01:02:35;9.50;99.90
19348;DHT22;9810;52.480;9.806;2022-10-19T01:05:05;9.50;99.90
19348;DHT22;9810;52.480;9.806;2022-10-19T01:07:33;9.40;99.90
19348;DHT22;9810;52.480;9.806;2022-10-19T01:10:01;9.40;99.90
19348;DHT22;9810;52.480;9.806;2022-10-19T01:12:50;9.50;99.90
19348;DHT22;9810;52.480;9.806;2022-10-19T01:15:27;9.50;99.90
19348;DHT22;9810;52.480;9.806;2022-10-19T01:18:03;9.40;99.90
19348;DHT22;9810;52.480;9.806;2022-10-19T01:21:04;9.60;99.90
19348;DHT22;9810;52.480;9.806;2022-10-19T01:24:18;9.40;99.90
19348;DHT22;9810;52.480;9.806;2022-10-19T01:30:15;8.90;99.90
19348;DHT22;9810;52.480;9.806;2022-10-19T01:33:02;8.90;99.90
19348;DHT22;9810;52.480;9.806;2022-10-19T01:35:34;8.90;99.90
19348;DHT22;9810;52.480;9.806;2022-10-19T01:38:13;8.90;99.90
19348;DHT22;9810;52.480;9.806;2022-10-19T01:40:48;8.90;99.90
19348;DHT22;9810;52.480;9.806;2022-10-19T01:43:26;9.10;99.90
19348;DHT22;9810;52.480;9.806;2022-10-19T01:46:01;9.30;99.90
19348;DHT22;9810;52.480;9.806;2022-10-19T01:48:34;9.40;99.90
19348;DHT22;9810;52.480;9.806;2022-10-19T01:51:05;9.50;99.90
19348;DHT22;9810;52.480;9.806;2022-10-19T01:53:41;9.70;99.90
19348;DHT22;9810;52.480;9.806;2022-10-19T01:56:11;9.90;99.90
19348;DHT22;9810;52.480;9.806;2022-10-19T01:58:41;10.00;99.90
19348;DHT22;9810;52.480;9.806;2022-10-19T02:01:12;10.00;99.90
19348;DHT22;9810;52.480;9.806;2022-10-19T02:03:42;10.00;99.90
19348;DHT22;9810;52.480;9.806;2022-10-19T02:06:10;10.10;99.90
19348;DHT22;9810;52.480;9.806;2022-10-19T02:08:42;10.20;99.90
19348;DHT22;9810;52.480;9.806;2022-10-19T02:11:10;10.20;99.90
19348;DHT22;9810;52.480;9.806;2022-10-19T02:13:38;10.40;99.90
19348;DHT22;9810;52.480;9.806;2022-10-19T02:16:15;10.50;99.90
19348;DHT22;9810;52.480;9.806;2022-10-19T02:18:46;10.70;99.90
19348;DHT22;9810;52.480;9.806;2022-10-19T02:21:14;10.80;99.90
19348;DHT22;9810;52.480;9.806;2022-10-19T02:23:42;10.80;99.90
19348;DHT22;9810;52.480;9.806;2022-10-19T02:26:09;10.80;99.90
19348;DHT22;9810;52.480;9.806;2022-10-19T02:28:37;10.90;99.90
19348;DHT22;9810;52.480;9.806;2022-10-19T02:31:04;10.90;99.90
19348;DHT22;9810;52.480;9.806;2022-10-19T02:33:33;11.00;99.90
19348;DHT22;9810;52.480;9.806;2022-10-19T02:36:00;10.90;99.90
19348;DHT22;9810;52.480;9.806;2022-10-19T02:38:28;10.90;99.90
19348;DHT22;9810;52.480;9.806;2022-10-19T02:41:01;10.90;99.90
19348;DHT22;9810;52.480;9.806;2022-10-19T02:43:33;10.80;99.90
19348;DHT22;9810;52.480;9.806;2022-10-19T02:46:03;10.90;99.90
19348;DHT22;9810;52.480;9.806;2022-10-19T02:48:34;10.60;99.90
19348;DHT22;9810;52.480;9.806;2022-10-19T02:51:03;10.50;99.90
19348;DHT22;9810;52.480;9.806;2022-10-19T02:53:30;10.40;99.90
19348;DHT22;9810;52.480;9.806;2022-10-19T02:55:57;10.50;99.90
19348;DHT22;9810;52.480;9.806;2022-10-19T02:58:24;10.70;99.90
19348;DHT22;9810;52.480;9.806;2022-10-19T03:00:51;10.60;99.90
19348;DHT22;9810;52.480;9.806;2022-10-19T03:03:18;10.50;99.90
19348;DHT22;9810;52.480;9.806;2022-10-19T03:05:46;10.70;99.90
19348;DHT22;9810;52.480;9.806;2022-10-19T03:08:13;10.90;99.90
19348;DHT22;9810;52.480;9.806;2022-10-19T03:10:40;11.00;99.90
19348;DHT22;9810;52.480;9.806;2022-10-19T03:13:07;11.00;99.90
19348;DHT22;9810;52.480;9.806;2022-10-19T03:15:34;10.90;99.90
19348;DHT22;9810;52.480;9.806;2022-10-19T03:18:01;10.80;99.90
19348;DHT22;9810;52.480;9.806;2022-10-19T03:20:28;10.80;99.90
19348;DHT22;9810;52.480;9.806;2022-10-19T03:22:57;10.70;99.90
19348;DHT22;9810;52.480;9.806;2022-10-19T03:25:24;11.00;99.90
19348;DHT22;9810;52.480;9.806;2022-10-19T03:27:51;10.90;99.90
19348;DHT22;9810;52.480;9.806;2022-10-19T03:30:19;10.80;99.90
19348;DHT22;9810;52.480;9.806;2022-10-19T03:32:46;10.80;99.90
19348;DHT22;9810;52.480;9.806;2022-10-19T03:35:13;10.70;99.90
19348;DHT22;9810;52.480;9.806;2022-10-19T03:37:40;10.50;99.90
19348;DHT22;9810;52.480;9.806;2022-10-19T03:40:10;10.60;99.90
19348;DHT22;9810;52.480;9.806;2022-10-19T03:42:37;10.70;99.90
19348;DHT22;9810;52.480;9.806;2022-10-19T03:45:05;10.70;99.90
19348;DHT22;9810;52.480;9.806;2022-10-19T03:47:33;10.50;99.90
19348;DHT22;9810;52.480;9.806;2022-10-19T03:50:00;10.50;99.90
19348;DHT22;9810;52.480;9.806;2022-10-19T03:52:27;10.50;99.90
19348;DHT22;9810;52.480;9.806;2022-10-19T03:54:54;10.80;99.90
19348;DHT22;9810;52.480;9.806;2022-10-19T03:57:23;10.60;99.90
19348;DHT22;9810;52.480;9.806;2022-10-19T03:59:50;10.70;99.90
19348;DHT22;9810;52.480;9.806;2022-10-19T04:02:17;10.70;99.90
19348;DHT22;9810;52.480;9.806;2022-10-19T04:04:44;10.80;99.90
19348;DHT22;9810;52.480;9.806;2022-10-19T04:07:11;10.70;99.90
19348;DHT22;9810;52.480;9.806;2022-10-19T04:09:38;10.70;99.90
19348;DHT22;9810;52.480;9.806;2022-10-19T04:12:05;10.90;99.90
19348;DHT22;9810;52.480;9.806;2022-10-19T04:14:33;10.80;99.90
19348;DHT22;9810;52.480;9.806;2022-10-19T04:17:01;10.80;99.90
19348;DHT22;9810;52.480;9.806;2022-10-19T04:19:28;10.70;99.90
19348;DHT22;9810;52.480;9.806;2022-10-19T04:21:55;10.60;99.90
19348;DHT22;9810;52.480;9.806;2022-10-19T04:24:22;10.60;99.90
19348;DHT22;9810;52.480;9.806;2022-10-19T04:26:51;10.80;99.90
19348;DHT22;9810;52.480;9.806;2022-10-19T04:29:20;10.70;99.90
19348;DHT22;9810;52.480;9.806;2022-10-19T04:31:50;10.80;99.90
19348;DHT22;9810;52.480;9.806;2022-10-19T04:34:18;10.70;99.90
19348;DHT22;9810;52.480;9.806;2022-10-19T04:36:45;10.70;99.90
19348;DHT22;9810;52.480;9.806;2022-10-19T04:39:12;10.60;99.90
19348;DHT22;9810;52.480;9.806;2022-10-19T04:41:39;10.70;99.90
19348;DHT22;9810;52.480;9.806;2022-10-19T04:44:08;10.60;99.90
19348;DHT22;9810;52.480;9.806;2022-10-19T04:46:35;10.60;99.90
19348;DHT22;9810;52.480;9.806;2022-10-19T04:49:04;10.60;99.90
19348;DHT22;9810;52.480;9.806;2022-10-19T04:51:32;10.70;99.90
19348;DHT22;9810;52.480;9.806;2022-10-19T04:54:01;10.80;99.90
19348;DHT22;9810;52.480;9.806;2022-10-19T04:56:28;10.80;99.90
19348;DHT22;9810;52.480;9.806;2022-10-19T04:58:58;10.80;99.90
19348;DHT22;9810;52.480;9.806;2022-10-19T05:01:26;10.70;99.90
19348;DHT22;9810;52.480;9.806;2022-10-19T05:03:55;10.60;99.90
19348;DHT22;9810;52.480;9.806;2022-10-19T05:06:24;10.70;99.90
19348;DHT22;9810;52.480;9.806;2022-10-19T05:08:51;10.70;99.90
19348;DHT22;9810;52.480;9.806;2022-10-19T05:11:19;10.70;99.90
19348;DHT22;9810;52.480;9.806;2022-10-19T05:13:47;10.60;99.90
19348;DHT22;9810;52.480;9.806;2022-10-19T05:16:16;10.60;99.90
19348;DHT22;9810;52.480;9.806;2022-10-19T05:18:46;10.50;99.90
19348;DHT22;9810;52.480;9.806;2022-10-19T05:21:15;10.50;99.90
19348;DHT22;9810;52.480;9.806;2022-10-19T05:23:44;10.60;99.90
19348;DHT22;9810;52.480;9.806;2022-10-19T05:26:12;10.50;99.90
19348;DHT22;9810;52.480;9.806;2022-10-19T05:28:42;10.50;99.90
19348;DHT22;9810;52.480;9.806;2022-10-19T05:31:10;10.50;99.90
19348;DHT22;9810;52.480;9.806;2022-10-19T05:33:38;10.50;99.90
19348;DHT22;9810;52.480;9.806;2022-10-19T05:36:14;10.60;99.90
19348;DHT22;9810;52.480;9.806;2022-10-19T05:38:43;10.60;99.90
19348;DHT22;9810;52.480;9.806;2022-10-19T05:41:11;10.50;99.90
19348;DHT22;9810;52.480;9.806;2022-10-19T05:43:39;10.50;99.90
19348;DHT22;9810;52.480;9.806;2022-10-19T05:46:08;10.70;99.90
19348;DHT22;9810;52.480;9.806;2022-10-19T05:48:36;10.70;99.90
19348;DHT22;9810;52.480;9.806;2022-10-19T05:51:05;10.90;99.90
19348;DHT22;9810;52.480;9.806;2022-10-19T05:53:33;11.00;99.90
19348;DHT22;9810;52.480;9.806;2022-10-19T05:56:03;10.80;99.90
19348;DHT22;9810;52.480;9.806;2022-10-19T05:58:31;10.60;99.90
19348;DHT22;9810;52.480;9.806;2022-10-19T06:00:59;10.50;99.90
19348;DHT22;9810;52.480;9.806;2022-10-19T06:03:27;10.50;99.90
19348;DHT22;9810;52.480;9.806;2022-10-19T06:05:55;10.40;99.90
19348;DHT22;9810;52.480;9.806;2022-10-19T06:08:23;10.30;99.90
19348;DHT22;9810;52.480;9.806;2022-10-19T06:10:50;10.30;99.90
19348;DHT22;9810;52.480;9.806;2022-10-19T06:13:19;10.20;99.90
19348;DHT22;9810;52.480;9.806;2022-10-19T06:15:49;10.30;99.90
19348;DHT22;9810;52.480;9.806;2022-10-19T06:18:17;10.30;99.90
19348;DHT22;9810;52.480;9.806;2022-10-19T06:20:44;10.30;99.90
19348;DHT22;9810;52.480;9.806;2022-10-19T06:23:11;10.30;99.90
19348;DHT22;9810;52.480;9.806;2022-10-19T06:25:39;10.40;99.90
19348;DHT22;9810;52.480;9.806;2022-10-19T06:28:07;10.50;99.90
19348;DHT22;9810;52.480;9.806;2022-10-19T06:30:38;10.50;99.90
19348;DHT22;9810;52.480;9.806;2022-10-19T06:33:06;10.60;99.90
19348;DHT22;9810;52.480;9.806;2022-10-19T06:35:33;10.60;99.90
19348;DHT22;9810;52.480;9.806;2022-10-19T06:38:00;10.70;99.90
19348;DHT22;9810;52.480;9.806;2022-10-19T06:40:27;10.70;99.90
19348;DHT22;9810;52.480;9.806;2022-10-19T06:42:55;10.90;99.90
19348;DHT22;9810;52.480;9.806;2022-10-19T06:45:23;11.00;99.90
19348;DHT22;9810;52.480;9.806;2022-10-19T06:47:52;10.90;99.90
19348;DHT22;9810;52.480;9.806;2022-10-19T06:50:19;11.10;99.90
19348;DHT22;9810;52.480;9.806;2022-10-19T06:52:46;11.20;99.90
19348;DHT22;9810;52.480;9.806;2022-10-19T06:55:13;11.20;99.90
19348;DHT22;9810;52.480;9.806;2022-10-19T06:57:42;11.30;99.90
19348;DHT22;9810;52.480;9.806;2022-10-19T07:00:10;11.30;99.90
19348;DHT22;9810;52.480;9.806;2022-10-19T07:02:38;11.30;99.90
19348;DHT22;9810;52.480;9.806;2022-10-19T07:05:08;11.30;99.90
19348;DHT22;9810;52.480;9.806;2022-10-19T07:07:35;11.30;99.90
19348;DHT22;9810;52.480;9.806;2022-10-19T07:10:02;11.30;99.90
19348;DHT22;9810;52.480;9.806;2022-10-19T07:12:29;11.30;99.90
19348;DHT22;9810;52.480;9.806;2022-10-19T07:14:56;11.30;99.90
19348;DHT22;9810;52.480;9.806;2022-10-19T07:17:24;11.30;99.90
19348;DHT22;9810;52.480;9.806;2022-10-19T07:19:51;11.20;99.90
19348;DHT22;9810;52.480;9.806;2022-10-19T07:22:20;11.30;99.90
19348;DHT22;9810;52.480;9.806;2022-10-19T07:24:48;11.40;99.90
19348;DHT22;9810;52.480;9.806;2022-10-19T07:27:16;11.40;99.90
19348;DHT22;9810;52.480;9.806;2022-10-19T07:29:44;11.40;99.90
19348;DHT22;9810;52.480;9.806;2022-10-19T07:32:11;11.40;99.90
19348;DHT22;9810;52.480;9.806;2022-10-19T07:34:38;11.60;99.90
19348;DHT22;9810;52.480;9.806;2022-10-19T07:37:05;11.60;99.90
19348;DHT22;9810;52.480;9.806;2022-10-19T07:39:35;11.60;99.90
19348;DHT22;9810;52.480;9.806;2022-10-19T07:42:02;11.60;99.90
19348;DHT22;9810;52.480;9.806;2022-10-19T07:44:29;11.70;99.90
19348;DHT22;9810;52.480;9.806;2022-10-19T07:46:56;11.80;99.90
19348;DHT22;9810;52.480;9.806;2022-10-19T07:49:24;12.10;99.90
19348;DHT22;9810;52.480;9.806;2022-10-19T07:51:51;11.90;99.90
19348;DHT22;9810;52.480;9.806;2022-10-19T07:54:20;11.90;99.90
19348;DHT22;9810;52.480;9.806;2022-10-19T07:56:50;12.10;99.90
19348;DHT22;9810;52.480;9.806;2022-10-19T07:59:17;12.20;99.90
19348;DHT22;9810;52.480;9.806;2022-10-19T08:01:45;12.20;99.90
19348;DHT22;9810;52.480;9.806;2022-10-19T08:04:13;12.50;99.90
19348;DHT22;9810;52.480;9.806;2022-10-19T08:06:40;12.70;99.90
19348;DHT22;9810;52.480;9.806;2022-10-19T08:09:07;12.70;99.90
19348;DHT22;9810;52.480;9.806;2022-10-19T08:11:35;12.90;99.90
19348;DHT22;9810;52.480;9.806;2022-10-19T08:14:04;12.90;99.90
19348;DHT22;9810;52.480;9.806;2022-10-19T08:16:33;12.80;99.90
19348;DHT22;9810;52.480;9.806;2022-10-19T08:19:05;12.80;99.90
19348;DHT22;9810;52.480;9.806;2022-10-19T08:21:34;12.60;99.90
19348;DHT22;9810;52.480;9.806;2022-10-19T08:24:01;12.70;99.90
19348;DHT22;9810;52.480;9.806;2022-10-19T08:26:29;12.90;99.90
19348;DHT22;9810;52.480;9.806;2022-10-19T08:28:59;12.90;99.90
19348;DHT22;9810;52.480;9.806;2022-10-19T08:31:28;12.80;99.90
19348;DHT22;9810;52.480;9.806;2022-10-19T08:33:56;12.80;99.90
19348;DHT22;9810;52.480;9.806;2022-10-19T08:36:24;12.70;99.90
19348;DHT22;9810;52.480;9.806;2022-10-19T08:38:56;12.70;99.90
19348;DHT22;9810;52.480;9.806;2022-10-19T08:41:29;12.50;99.90
19348;DHT22;9810;52.480;9.806;2022-10-19T08:44:12;12.40;99.90
19348;DHT22;9810;52.480;9.806;2022-10-19T08:46:49;12.50;99.90
19348;DHT22;9810;52.480;9.806;2022-10-19T08:49:21;12.20;99.90
19348;DHT22;9810;52.480;9.806;2022-10-19T08:51:53;12.60;99.90
19348;DHT22;9810;52.480;9.806;2022-10-19T08:54:23;12.50;99.90
19348;DHT22;9810;52.480;9.806;2022-10-19T08:57:00;12.60;99.90
19348;DHT22;9810;52.480;9.806;2022-10-19T08:59:36;12.90;99.90
19348;DHT22;9810;52.480;9.806;2022-10-19T09:02:13;13.30;99.90
19348;DHT22;9810;52.480;9.806;2022-10-19T09:04:46;13.40;99.90
19348;DHT22;9810;52.480;9.806;2022-10-19T09:07:24;13.40;99.90
19348;DHT22;9810;52.480;9.806;2022-10-19T09:09:55;13.50;99.90
19348;DHT22;9810;52.480;9.806;2022-10-19T09:12:41;13.80;99.90
19348;DHT22;9810;52.480;9.806;2022-10-19T09:15:12;13.70;99.90
19348;DHT22;9810;52.480;9.806;2022-10-19T09:17:42;14.00;99.90
19348;DHT22;9810;52.480;9.806;2022-10-19T09:20:16;14.10;99.90
19348;DHT22;9810;52.480;9.806;2022-10-19T09:22:45;13.90;99.90
19348;DHT22;9810;52.480;9.806;2022-10-19T09:25:16;14.10;99.90
19348;DHT22;9810;52.480;9.806;2022-10-19T09:27:47;14.20;99.90
19348;DHT22;9810;52.480;9.806;2022-10-19T09:30:17;14.10;99.90
19348;DHT22;9810;52.480;9.806;2022-10-19T09:32:47;14.10;99.90
19348;DHT22;9810;52.480;9.806;2022-10-19T09:35:24;13.90;99.90
19348;DHT22;9810;52.480;9.806;2022-10-19T09:37:52;14.00;99.90
19348;DHT22;9810;52.480;9.806;2022-10-19T09:40:22;13.90;99.90
19348;DHT22;9810;52.480;9.806;2022-10-19T09:42:50;14.10;99.90
19348;DHT22;9810;52.480;9.806;2022-10-19T09:45:31;13.80;99.90
19348;DHT22;9810;52.480;9.806;2022-10-19T09:48:02;13.80;99.90
19348;DHT22;9810;52.480;9.806;2022-10-19T09:50:42;13.90;99.90
19348;DHT22;9810;52.480;9.806;2022-10-19T09:53:16;13.60;99.90
19348;DHT22;9810;52.480;9.806;2022-10-19T09:55:56;13.70;99.90
19348;DHT22;9810;52.480;9.806;2022-10-19T09:58:25;13.80;99.90
19348;DHT22;9810;52.480;9.806;2022-10-19T10:00:53;13.70;99.90
19348;DHT22;9810;52.480;9.806;2022-10-19T10:03:25;13.70;99.90
19348;DHT22;9810;52.480;9.806;2022-10-19T10:05:54;13.60;99.90
19348;DHT22;9810;52.480;9.806;2022-10-19T10:08:23;14.00;99.90
19348;DHT22;9810;52.480;9.806;2022-10-19T10:10:58;14.20;99.90
19348;DHT22;9810;52.480;9.806;2022-10-19T10:13:35;13.90;99.90
19348;DHT22;9810;52.480;9.806;2022-10-19T10:16:06;13.90;99.90
19348;DHT22;9810;52.480;9.806;2022-10-19T10:18:37;14.10;99.90
19348;DHT22;9810;52.480;9.806;2022-10-19T10:21:13;13.90;99.90
19348;DHT22;9810;52.480;9.806;2022-10-19T10:23:58;13.60;99.90
19348;DHT22;9810;52.480;9.806;2022-10-19T10:26:26;13.20;99.90
19348;DHT22;9810;52.480;9.806;2022-10-19T10:28:54;13.40;99.90
19348;DHT22;9810;52.480;9.806;2022-10-19T10:31:23;13.70;99.90
19348;DHT22;9810;52.480;9.806;2022-10-19T10:33:55;14.00;99.90
19348;DHT22;9810;52.480;9.806;2022-10-19T10:36:27;13.30;99.90
19348;DHT22;9810;52.480;9.806;2022-10-19T10:39:02;13.70;99.90
19348;DHT22;9810;52.480;9.806;2022-10-19T10:41:33;14.00;99.90
19348;DHT22;9810;52.480;9.806;2022-10-19T10:44:06;14.20;99.90
19348;DHT22;9810;52.480;9.806;2022-10-19T10:46:36;14.00;99.90
19348;DHT22;9810;52.480;9.806;2022-10-19T10:49:15;14.30;99.90
19348;DHT22;9810;52.480;9.806;2022-10-19T10:51:43;14.80;99.90
19348;DHT22;9810;52.480;9.806;2022-10-19T10:54:18;15.80;99.90
19348;DHT22;9810;52.480;9.806;2022-10-19T10:57:12;15.80;99.90
19348;DHT22;9810;52.480;9.806;2022-10-19T10:59:48;15.50;99.90
19348;DHT22;9810;52.480;9.806;2022-10-19T11:02:28;16.20;99.90
19348;DHT22;9810;52.480;9.806;2022-10-19T11:05:01;15.90;99.90
19348;DHT22;9810;52.480;9.806;2022-10-19T11:07:31;16.10;99.90
19348;DHT22;9810;52.480;9.806;2022-10-19T11:10:03;15.80;99.90
19348;DHT22;9810;52.480;9.806;2022-10-19T11:12:38;15.40;99.90
19348;DHT22;9810;52.480;9.806;2022-10-19T11:15:13;15.30;99.90
19348;DHT22;9810;52.480;9.806;2022-10-19T11:17:56;15.20;99.90
19348;DHT22;9810;52.480;9.806;2022-10-19T11:20:29;15.20;99.90
19348;DHT22;9810;52.480;9.806;2022-10-19T11:23:06;15.20;99.90
19348;DHT22;9810;52.480;9.806;2022-10-19T11:25:48;15.60;99.90
19348;DHT22;9810;52.480;9.806;2022-10-19T11:28:38;17.10;99.90
19348;DHT22;9810;52.480;9.806;2022-10-19T11:31:15;17.20;99.90
19348;DHT22;9810;52.480;9.806;2022-10-19T11:33:52;16.50;99.90
19348;DHT22;9810;52.480;9.806;2022-10-19T11:36:34;15.80;99.90
19348;DHT22;9810;52.480;9.806;2022-10-19T11:39:19;16.20;99.90
19348;DHT22;9810;52.480;9.806;2022-10-19T11:41:57;16.50;99.90
19348;DHT22;9810;52.480;9.806;2022-10-19T11:44:35;16.00;99.90
19348;DHT22;9810;52.480;9.806;2022-10-19T11:47:22;16.20;99.90
19348;DHT22;9810;52.480;9.806;2022-10-19T11:50:02;16.60;99.90
19348;DHT22;9810;52.480;9.806;2022-10-19T11:52:41;15.90;99.90
19348;DHT22;9810;52.480;9.806;2022-10-19T11:55:22;15.10;99.90
19348;DHT22;9810;52.480;9.806;2022-10-19T11:57:56;14.50;99.90
19348;DHT22;9810;52.480;9.806;2022-10-19T12:00:25;14.60;99.90
19348;DHT22;9810;52.480;9.806;2022-10-19T12:03:18;14.70;99.90
19348;DHT22;9810;52.480;9.806;2022-10-19T12:05:59;14.60;99.90
19348;DHT22;9810;52.480;9.806;2022-10-19T12:08:51;14.80;99.90
19348;DHT22;9810;52.480;9.806;2022-10-19T12:11:28;14.90;99.90
19348;DHT22;9810;52.480;9.806;2022-10-19T12:14:02;14.50;99.90
19348;DHT22;9810;52.480;9.806;2022-10-19T12:16:36;14.30;99.90
19348;DHT22;9810;52.480;9.806;2022-10-19T12:19:05;14.30;99.90
19348;DHT22;9810;52.480;9.806;2022-10-19T12:21:35;14.20;99.90
19348;DHT22;9810;52.480;9.806;2022-10-19T12:24:11;14.00;99.90
19348;DHT22;9810;52.480;9.806;2022-10-19T12:26:39;13.90;99.90
19348;DHT22;9810;52.480;9.806;2022-10-19T12:29:12;13.80;99.90
19348;DHT22;9810;52.480;9.806;2022-10-19T12:31:42;13.80;99.90
19348;DHT22;9810;52.480;9.806;2022-10-19T12:34:21;13.70;99.90
19348;DHT22;9810;52.480;9.806;2022-10-19T12:36:54;13.60;99.90
19348;DHT22;9810;52.480;9.806;2022-10-19T12:39:27;13.60;99.90
19348;DHT22;9810;52.480;9.806;2022-10-19T12:42:00;13.40;99.90
19348;DHT22;9810;52.480;9.806;2022-10-19T12:44:53;13.40;99.90
19348;DHT22;9810;52.480;9.806;2022-10-19T12:47:23;13.40;99.90
19348;DHT22;9810;52.480;9.806;2022-10-19T12:49:51;13.50;99.90
19348;DHT22;9810;52.480;9.806;2022-10-19T12:52:38;13.40;99.90
19348;DHT22;9810;52.480;9.806;2022-10-19T12:55:24;13.50;99.90
19348;DHT22;9810;52.480;9.806;2022-10-19T12:58:01;13.80;99.90
19348;DHT22;9810;52.480;9.806;2022-10-19T13:00:31;14.00;99.90
19348;DHT22;9810;52.480;9.806;2022-10-19T13:03:02;14.30;99.90
19348;DHT22;9810;52.480;9.806;2022-10-19T13:05:32;14.40;99.90
19348;DHT22;9810;52.480;9.806;2022-10-19T13:08:01;14.20;99.90
19348;DHT22;9810;52.480;9.806;2022-10-19T13:10:31;14.20;99.90
19348;DHT22;9810;52.480;9.806;2022-10-19T13:13:01;14.00;99.90
19348;DHT22;9810;52.480;9.806;2022-10-19T13:15:50;14.00;99.90
19348;DHT22;9810;52.480;9.806;2022-10-19T13:21:47;14.40;99.90
19348;DHT22;9810;52.480;9.806;2022-10-19T13:24:33;14.40;99.90
19348;DHT22;9810;52.480;9.806;2022-10-19T13:36:09;14.40;99.90
19348;DHT22;9810;52.480;9.806;2022-10-19T13:38:37;14.60;99.90
19348;DHT22;9810;52.480;9.806;2022-10-19T13:41:09;14.70;99.90
19348;DHT22;9810;52.480;9.806;2022-10-19T13:43:40;14.80;99.90
19348;DHT22;9810;52.480;9.806;2022-10-19T13:46:17;14.70;99.90
19348;DHT22;9810;52.480;9.806;2022-10-19T13:49:10;14.70;99.90
19348;DHT22;9810;52.480;9.806;2022-10-19T13:51:50;14.70;99.90
19348;DHT22;9810;52.480;9.806;2022-10-19T13:54:41;14.90;99.90
19348;DHT22;9810;52.480;9.806;2022-10-19T13:57:17;14.80;99.90
19348;DHT22;9810;52.480;9.806;2022-10-19T14:00:09;14.60;99.90
19348;DHT22;9810;52.480;9.806;2022-10-19T14:02:57;14.40;99.90
19348;DHT22;9810;52.480;9.806;2022-10-19T14:05:46;14.30;99.90
19348;DHT22;9810;52.480;9.806;2022-10-19T14:11:14;14.30;99.90
19348;DHT22;9810;52.480;9.806;2022-10-19T14:13:43;14.30;99.90
19348;DHT22;9810;52.480;9.806;2022-10-19T14:16:18;14.20;99.90
19348;DHT22;9810;52.480;9.806;2022-10-19T14:18:52;14.10;99.90
19348;DHT22;9810;52.480;9.806;2022-10-19T14:21:29;13.90;99.90
19348;DHT22;9810;52.480;9.806;2022-10-19T14:23:57;13.80;99.90
19348;DHT22;9810;52.480;9.806;2022-10-19T14:26:26;13.80;99.90
19348;DHT22;9810;52.480;9.806;2022-10-19T14:28:57;13.80;99.90
19348;DHT22;9810;52.480;9.806;2022-10-19T14:31:30;13.60;99.90
19348;DHT22;9810;52.480;9.806;2022-10-19T14:34:01;13.50;99.90
19348;DHT22;9810;52.480;9.806;2022-10-19T14:36:33;13.50;99.90
19348;DHT22;9810;52.480;9.806;2022-10-19T14:39:03;13.50;99.90
19348;DHT22;9810;52.480;9.806;2022-10-19T14:41:33;13.50;99.90
19348;DHT22;9810;52.480;9.806;2022-10-19T14:44:26;13.60;99.90
19348;DHT22;9810;52.480;9.806;2022-10-19T14:46:59;13.70;99.90
19348;DHT22;9810;52.480;9.806;2022-10-19T14:49:26;13.70;99.90
19348;DHT22;9810;52.480;9.806;2022-10-19T14:51:55;13.60;99.90
19348;DHT22;9810;52.480;9.806;2022-10-19T14:54:27;13.70;99.90
19348;DHT22;9810;52.480;9.806;2022-10-19T14:56:59;13.70;99.90
19348;DHT22;9810;52.480;9.806;2022-10-19T14:59:29;13.70;99.90
19348;DHT22;9810;52.480;9.806;2022-10-19T15:02:01;13.60;99.90
19348;DHT22;9810;52.480;9.806;2022-10-19T15:04:32;13.60;99.90
19348;DHT22;9810;52.480;9.806;2022-10-19T15:07:02;13.50;99.90
19348;DHT22;9810;52.480;9.806;2022-10-19T15:09:32;13.40;99.90
19348;DHT22;9810;52.480;9.806;2022-10-19T15:12:05;13.40;99.90
19348;DHT22;9810;52.480;9.806;2022-10-19T15:14:34;13.30;99.90
19348;DHT22;9810;52.480;9.806;2022-10-19T15:17:05;13.30;99.90
19348;DHT22;9810;52.480;9.806;2022-10-19T15:19:46;13.20;99.90
19348;DHT22;9810;52.480;9.806;2022-10-19T15:22:18;13.20;99.90
19348;DHT22;9810;52.480;9.806;2022-10-19T15:24:59;13.10;99.90
19348;DHT22;9810;52.480;9.806;2022-10-19T15:27:32;13.00;99.90
19348;DHT22;9810;52.480;9.806;2022-10-19T15:30:02;13.00;99.90
19348;DHT22;9810;52.480;9.806;2022-10-19T15:32:34;12.90;99.90
19348;DHT22;9810;52.480;9.806;2022-10-19T15:35:09;12.90;99.90
19348;DHT22;9810;52.480;9.806;2022-10-19T15:37:39;12.80;99.90
19348;DHT22;9810;52.480;9.806;2022-10-19T15:40:09;12.60;99.90
19348;DHT22;9810;52.480;9.806;2022-10-19T15:42:39;12.60;99.90
19348;DHT22;9810;52.480;9.806;2022-10-19T15:45:33;12.50;99.90
19348;DHT22;9810;52.480;9.806;2022-10-19T15:48:26;12.40;99.90
19348;DHT22;9810;52.480;9.806;2022-10-19T15:50:54;12.20;99.90
19348;DHT22;9810;52.480;9.806;2022-10-19T15:53:22;12.30;99.90
19348;DHT22;9810;52.480;9.806;2022-10-19T15:55:50;12.40;99.90
19348;DHT22;9810;52.480;9.806;2022-10-19T15:58:18;12.30;99.90
19348;DHT22;9810;52.480;9.806;2022-10-19T16:00:45;12.10;99.90
19348;DHT22;9810;52.480;9.806;2022-10-19T16:03:13;11.80;99.90
19348;DHT22;9810;52.480;9.806;2022-10-19T16:05:42;11.90;99.90
19348;DHT22;9810;52.480;9.806;2022-10-19T16:08:09;11.60;99.90
19348;DHT22;9810;52.480;9.806;2022-10-19T16:10:37;11.50;99.90
19348;DHT22;9810;52.480;9.806;2022-10-19T16:13:04;11.30;99.90
19348;DHT22;9810;52.480;9.806;2022-10-19T16:15:31;11.40;99.90
19348;DHT22;9810;52.480;9.806;2022-10-19T16:17:59;11.10;99.90
19348;DHT22;9810;52.480;9.806;2022-10-19T16:20:28;10.70;99.90
19348;DHT22;9810;52.480;9.806;2022-10-19T16:22:57;10.60;99.90
19348;DHT22;9810;52.480;9.806;2022-10-19T16:25:24;10.30;99.90
19348;DHT22;9810;52.480;9.806;2022-10-19T16:27:51;10.10;99.90
19348;DHT22;9810;52.480;9.806;2022-10-19T16:30:19;10.00;99.90
19348;DHT22;9810;52.480;9.806;2022-10-19T16:32:47;10.00;99.90